createdAt,value
2018-01-10T00:00:36.775Z,22.70
2018-01-10T00:03:05.712Z,37.53
2018-01-10T00:05:34.128Z,29.75
2018-01-10T00:08:05.068Z,24.55
2018-01-10T00:10:34.609Z,23.90
2018-01-10T00:13:03.417Z,20.35
2018-01-10T00:15:32.471Z,21.98
2018-01-10T00:18:02.880Z,19.50
2018-01-10T00:20:32.046Z,17.95
2018-01-10T00:23:00.418Z,17.60
2018-01-10T00:25:29.349Z,19.35
2018-01-10T00:27:57.692Z,19.65
2018-01-10T00:30:26.094Z,17.12
2018-01-10T00:32:55.033Z,17.37
2018-01-10T00:35:24.019Z,18.45
2018-01-10T00:37:55.999Z,19.50
2018-01-10T00:40:24.523Z,21.40
2018-01-10T00:42:52.723Z,18.27
2018-01-10T00:45:20.942Z,19.08
2018-01-10T00:47:49.160Z,39.20
2018-01-10T00:50:17.482Z,17.50
2018-01-10T00:52:45.621Z,16.33
2018-01-10T00:55:13.791Z,14.73
2018-01-10T00:57:41.969Z,15.63
2018-01-10T01:00:10.274Z,18.27
2018-01-10T01:02:38.476Z,23.77
2018-01-10T01:05:07.425Z,27.03
2018-01-10T01:07:35.634Z,20.73
2018-01-10T01:10:03.886Z,18.98
2018-01-10T01:12:32.142Z,19.30
2018-01-10T01:15:00.286Z,18.85
2018-01-10T01:17:28.586Z,18.83
2018-01-10T01:19:57.571Z,18.17
2018-01-10T01:22:25.811Z,17.95
2018-01-10T01:24:54.808Z,18.70
2018-01-10T01:27:23.175Z,19.65
2018-01-10T01:29:52.480Z,14.85
2018-01-10T01:32:20.729Z,18.57
2018-01-10T01:34:49.836Z,14.60
2018-01-10T01:37:18.833Z,18.25
2018-01-10T01:39:46.997Z,23.10
2018-01-10T01:42:15.209Z,21.42
2018-01-10T01:44:43.496Z,15.63
2018-01-10T01:47:14.322Z,19.30
2018-01-10T01:49:42.739Z,19.65
2018-01-10T01:52:11.081Z,18.95
2018-01-10T01:54:39.411Z,19.20
2018-01-10T01:57:07.638Z,22.92
2018-01-10T01:59:36.122Z,26.58
2018-01-10T02:02:04.272Z,25.37
2018-01-10T02:04:32.512Z,25.70
2018-01-10T02:07:01.273Z,28.55
2018-01-10T02:09:29.608Z,26.48
2018-01-10T02:11:57.845Z,24.40
2018-01-10T02:14:27.161Z,25.10
2018-01-10T02:16:56.340Z,23.25
2018-01-10T02:19:24.839Z,22.58
2018-01-10T02:21:54.060Z,24.27
2018-01-10T02:24:22.502Z,19.47
2018-01-10T02:26:51.427Z,17.15
2018-01-10T02:29:21.521Z,15.75
2018-01-10T02:31:49.882Z,22.45
2018-01-10T02:34:18.022Z,19.25
2018-01-10T02:36:46.393Z,19.75
2018-01-10T02:39:14.629Z,21.48
2018-01-10T02:41:42.916Z,18.00
2018-01-10T02:44:11.160Z,18.60
2018-01-10T02:46:40.116Z,17.55
2018-01-10T02:49:08.273Z,19.50
2018-01-10T02:51:36.472Z,13.65
2018-01-10T02:54:04.621Z,18.37
2018-01-10T02:56:32.935Z,18.50
2018-01-10T02:59:02.029Z,18.00
2018-01-10T03:01:30.313Z,15.85
2018-01-10T03:03:59.467Z,16.05
2018-01-10T03:06:27.924Z,18.48
2018-01-10T03:08:56.158Z,14.40
2018-01-10T03:11:25.066Z,17.62
2018-01-10T03:13:53.709Z,18.42
2018-01-10T03:16:22.030Z,16.62
2018-01-10T03:18:50.313Z,15.20
2018-01-10T03:21:18.513Z,17.95
2018-01-10T03:26:45.945Z,15.20
2018-01-10T03:29:14.318Z,15.82
2018-01-10T03:31:43.417Z,18.85
2018-01-10T03:34:11.718Z,18.83
2018-01-10T03:36:39.954Z,18.00
2018-01-10T03:39:08.922Z,18.62
2018-01-10T03:41:37.065Z,18.48
2018-01-10T03:44:05.198Z,18.00
2018-01-10T03:46:33.316Z,14.53
2018-01-10T03:49:01.463Z,17.83
2018-01-10T03:51:29.597Z,15.15
2018-01-10T03:53:57.757Z,18.02
2018-01-10T03:56:25.889Z,20.23
2018-01-10T03:58:54.030Z,17.73
2018-01-10T04:01:22.256Z,20.50
2018-01-10T04:03:50.404Z,20.20
2018-01-10T04:06:18.551Z,19.40
2018-01-10T04:08:46.730Z,15.45
2018-01-10T04:11:15.202Z,17.90
2018-01-10T04:13:43.456Z,19.73
2018-01-10T04:16:11.597Z,23.23
2018-01-10T04:18:40.068Z,21.00
2018-01-10T04:21:08.242Z,16.02
2018-01-10T04:23:36.436Z,17.55
2018-01-10T04:26:04.616Z,14.07
2018-01-10T04:28:33.151Z,22.10
2018-01-10T04:31:01.726Z,23.15
2018-01-10T04:33:30.058Z,22.65
2018-01-10T04:35:58.389Z,20.23
2018-01-10T04:38:26.705Z,17.73
2018-01-10T04:40:56.037Z,19.58
2018-01-10T04:43:24.504Z,20.45
2018-01-10T04:45:52.713Z,24.05
2018-01-10T04:48:21.247Z,20.95
2018-01-10T04:50:50.845Z,22.25
2018-01-10T04:53:20.693Z,23.30
2018-01-10T04:55:48.939Z,20.10
2018-01-10T04:58:17.919Z,19.05
2018-01-10T05:00:46.350Z,19.77
2018-01-10T05:03:14.653Z,21.65
2018-01-10T05:05:42.951Z,19.10
2018-01-10T05:08:11.951Z,17.55
2018-01-10T05:10:40.278Z,18.95
2018-01-10T05:13:08.632Z,16.40
2018-01-10T05:15:37.950Z,18.55
2018-01-10T05:18:06.871Z,17.05
2018-01-10T05:20:35.010Z,15.88
2018-01-10T05:23:04.376Z,17.75
2018-01-10T05:25:32.579Z,28.23
2018-01-10T05:28:00.782Z,26.67
2018-01-10T05:30:29.060Z,29.37
2018-01-10T05:32:57.266Z,25.15
2018-01-10T05:35:25.622Z,24.20
2018-01-10T05:37:53.744Z,33.45
2018-01-10T05:40:21.944Z,26.23
2018-01-10T05:42:50.028Z,20.65
2018-01-10T05:45:18.985Z,30.05
2018-01-10T05:47:47.269Z,25.40
2018-01-10T05:50:15.700Z,23.83
2018-01-10T05:52:44.031Z,27.55
2018-01-10T05:55:12.632Z,22.05
2018-01-10T05:57:40.861Z,29.27
2018-01-10T06:00:09.157Z,25.20
2018-01-10T06:02:37.302Z,26.40
2018-01-10T06:05:05.442Z,28.75
2018-01-10T06:07:33.580Z,26.48
2018-01-10T06:10:01.741Z,25.75
2018-01-10T06:12:29.900Z,24.55
2018-01-10T06:14:58.045Z,27.80
2018-01-10T06:17:26.186Z,26.33
2018-01-10T06:19:54.765Z,32.65
2018-01-10T06:22:23.115Z,38.50
2018-01-10T06:24:52.984Z,26.12
2018-01-10T06:27:21.224Z,30.00
2018-01-10T06:29:49.507Z,33.88
2018-01-10T06:32:17.746Z,45.45
2018-01-10T06:34:45.958Z,26.80
2018-01-10T06:37:14.192Z,28.65
2018-01-10T06:39:42.842Z,33.50
2018-01-10T06:42:11.224Z,32.00
2018-01-10T06:44:39.430Z,33.30
2018-01-10T06:47:13.321Z,23.58
2018-01-10T06:49:41.476Z,23.20
2018-01-10T06:52:09.681Z,25.12
2018-01-10T06:54:37.874Z,24.92
2018-01-10T06:57:06.403Z,21.10
2018-01-10T06:59:34.631Z,25.00
2018-01-10T07:02:03.086Z,20.52
2018-01-10T07:04:31.204Z,17.35
2018-01-10T07:06:59.358Z,17.27
2018-01-10T07:09:28.256Z,20.73
2018-01-10T07:11:56.395Z,16.20
2018-01-10T07:14:24.516Z,15.63
2018-01-10T07:16:52.747Z,17.35
2018-01-10T07:19:20.947Z,18.77
2018-01-10T07:21:49.121Z,19.37
2018-01-10T07:24:18.188Z,17.10
2018-01-10T07:26:47.300Z,16.12
2018-01-10T07:29:15.524Z,22.15
2018-01-10T07:31:43.689Z,22.60
2018-01-10T07:34:11.856Z,20.60
2018-01-10T07:36:40.041Z,18.87
2018-01-10T07:39:09.156Z,20.65
2018-01-10T07:41:37.323Z,17.15
2018-01-10T07:44:06.366Z,18.83
2018-01-10T07:46:34.556Z,20.20
2018-01-10T07:49:02.743Z,18.77
2018-01-10T07:51:30.970Z,39.83
2018-01-10T07:53:59.184Z,35.20
2018-01-10T07:56:27.395Z,27.27
2018-01-10T07:58:56.361Z,24.15
2018-01-10T08:01:24.875Z,23.33
2018-01-10T08:03:53.221Z,22.13
2018-01-10T08:06:21.360Z,21.23
2018-01-10T08:08:49.587Z,19.93
2018-01-10T08:11:18.007Z,21.03
2018-01-10T08:13:46.150Z,21.50
2018-01-10T08:16:14.338Z,22.80
2018-01-10T08:18:42.692Z,21.30
2018-01-10T08:21:11.649Z,23.07
2018-01-10T08:23:39.953Z,32.70
2018-01-10T08:26:08.132Z,23.57
2018-01-10T08:28:36.336Z,23.80
2018-01-10T08:31:04.737Z,24.77
2018-01-10T08:33:32.973Z,17.40
2018-01-10T08:36:01.325Z,19.10
2018-01-10T08:38:30.339Z,21.20
2018-01-10T08:40:58.602Z,23.40
2018-01-10T08:43:26.844Z,24.53
2018-01-10T08:45:55.154Z,27.87
2018-01-10T08:48:23.428Z,24.90
2018-01-10T08:50:51.761Z,24.60
2018-01-10T08:53:20.163Z,25.40
2018-01-10T08:55:48.466Z,26.17
2018-01-10T08:58:16.620Z,27.63
2018-01-10T09:00:45.582Z,33.10
2018-01-10T09:03:13.790Z,22.73
2018-01-10T09:05:42.778Z,26.10
2018-01-10T09:08:11.852Z,30.63
2018-01-10T09:10:40.010Z,23.00
2018-01-10T09:13:08.200Z,28.43
2018-01-10T09:15:36.333Z,26.20
2018-01-10T09:18:04.581Z,22.07
2018-01-10T09:20:32.724Z,22.13
2018-01-10T09:23:01.608Z,25.47
2018-01-10T09:25:30.595Z,24.93
2018-01-10T09:27:58.787Z,18.70
2018-01-10T09:30:26.940Z,19.67
2018-01-10T09:32:55.063Z,20.00
2018-01-10T09:35:23.210Z,21.03
2018-01-10T09:37:51.327Z,18.63
2018-01-10T09:40:19.525Z,17.73
2018-01-10T09:42:47.663Z,18.97
2018-01-10T09:45:15.813Z,17.70
2018-01-10T09:47:43.974Z,18.97
2018-01-10T09:50:12.113Z,18.83
2018-01-10T09:52:40.258Z,17.27
2018-01-10T09:55:08.381Z,18.20
2018-01-10T09:57:36.566Z,16.33
2018-01-10T10:00:04.693Z,14.90
2018-01-10T10:02:32.845Z,17.83
2018-01-10T10:05:00.994Z,15.73
2018-01-10T10:07:29.130Z,15.47
2018-01-10T10:09:58.041Z,14.63
2018-01-10T10:12:26.174Z,16.50
2018-01-10T10:14:54.305Z,18.87
2018-01-10T10:17:22.420Z,13.97
2018-01-10T10:19:51.320Z,14.40
2018-01-10T10:22:20.210Z,14.30
2018-01-10T10:24:49.110Z,16.20
2018-01-10T10:27:17.232Z,15.60
2018-01-10T10:29:45.368Z,14.63
2018-01-10T10:32:13.493Z,12.53
2018-01-10T10:34:41.632Z,10.93
2018-01-10T10:37:09.761Z,12.07
2018-01-10T10:39:37.913Z,10.83
2018-01-10T10:42:06.809Z,10.77
2018-01-10T10:44:35.694Z,10.40
2018-01-10T10:47:04.600Z,9.63
2018-01-10T10:49:33.489Z,9.50
2018-01-10T10:52:02.379Z,10.60
2018-01-10T10:54:30.508Z,10.37
2018-01-10T10:56:58.697Z,10.00
2018-01-10T10:59:26.812Z,9.07
2018-01-10T11:01:55.278Z,9.50
2018-01-10T11:04:23.388Z,11.27
2018-01-10T11:06:51.538Z,10.20
2018-01-10T11:09:19.664Z,9.37
2018-01-10T11:11:47.780Z,9.33
2018-01-10T11:14:16.760Z,8.90
2018-01-10T11:16:44.872Z,8.73
2018-01-10T11:19:13.029Z,9.20
2018-01-10T11:21:41.158Z,8.00
2018-01-10T11:24:10.056Z,8.53
2018-01-10T11:26:38.193Z,9.07
2018-01-10T11:29:06.337Z,7.50
2018-01-10T11:31:34.502Z,8.00
2018-01-10T11:34:02.638Z,8.00
2018-01-10T11:36:30.748Z,8.53
2018-01-10T11:38:58.869Z,7.07
2018-01-10T11:41:27.776Z,5.57
2018-01-10T11:43:55.893Z,6.20
2018-01-10T11:46:24.016Z,6.30
2018-01-10T11:48:52.136Z,6.43
2018-01-10T11:51:20.258Z,6.33
2018-01-10T11:53:48.382Z,6.50
2018-01-10T11:56:16.514Z,5.20
2018-01-10T11:58:44.630Z,6.37
2018-01-10T12:01:13.534Z,5.90
2018-01-10T12:03:41.680Z,5.77
2018-01-10T12:06:09.840Z,6.77
2018-01-10T12:08:37.979Z,7.13
2018-01-10T12:11:06.096Z,6.00
2018-01-10T12:13:34.225Z,6.63
2018-01-10T12:16:02.366Z,7.13
2018-01-10T12:18:31.287Z,6.40
2018-01-10T12:20:59.404Z,6.20
2018-01-10T12:23:27.541Z,6.20
2018-01-10T12:25:55.660Z,7.50
2018-01-10T12:28:24.564Z,7.10
2018-01-10T12:30:53.449Z,6.10
2018-01-10T12:33:22.325Z,6.20
2018-01-10T12:35:50.480Z,5.10
2018-01-10T12:38:18.586Z,5.63
2018-01-10T12:40:47.482Z,6.30
2018-01-10T12:43:15.597Z,5.53
2018-01-10T12:45:43.735Z,5.90
2018-01-10T12:48:11.858Z,4.90
2018-01-10T12:50:40.000Z,6.20
2018-01-10T12:53:08.144Z,6.10
2018-01-10T12:55:36.264Z,5.17
2018-01-10T12:58:04.408Z,5.60
2018-01-10T13:00:32.526Z,5.00
2018-01-10T13:03:00.687Z,5.83
2018-01-10T13:05:28.816Z,4.83
2018-01-10T13:07:56.940Z,6.10
2018-01-10T13:10:25.827Z,5.90
2018-01-10T13:12:53.970Z,5.90
2018-01-10T13:15:22.085Z,6.60
2018-01-10T13:17:50.984Z,5.57
2018-01-10T13:20:19.110Z,5.70
2018-01-10T13:22:47.337Z,6.57
2018-01-10T13:25:15.468Z,5.40
2018-01-10T13:27:43.585Z,6.63
2018-01-10T13:30:11.761Z,5.80
2018-01-10T13:32:39.878Z,6.30
2018-01-10T13:35:08.039Z,6.00
2018-01-10T13:37:37.049Z,6.30
2018-01-10T13:40:05.160Z,5.90
2018-01-10T13:42:33.294Z,6.27
2018-01-10T13:45:01.434Z,6.70
2018-01-10T13:47:29.601Z,6.40
2018-01-10T13:49:57.717Z,6.50
2018-01-10T13:52:26.983Z,6.60
2018-01-10T13:54:55.113Z,7.77
2018-01-10T13:57:23.258Z,6.60
2018-01-10T13:59:52.169Z,7.40
2018-01-10T14:02:21.048Z,7.40
2018-01-10T14:04:49.930Z,7.23
2018-01-10T14:07:18.857Z,7.07
2018-01-10T14:09:47.380Z,7.33
2018-01-10T14:12:15.513Z,8.63
2018-01-10T14:14:43.623Z,8.27
2018-01-10T14:17:11.769Z,6.67
2018-01-10T14:19:39.961Z,8.20
2018-01-10T14:22:08.090Z,7.90
2018-01-10T14:24:36.278Z,8.50
2018-01-10T14:27:04.400Z,7.47
2018-01-10T14:29:32.612Z,7.90
2018-01-10T14:32:00.994Z,9.20
2018-01-10T14:34:29.171Z,8.47
2018-01-10T14:36:57.385Z,8.70
2018-01-10T14:39:25.506Z,7.93
2018-01-10T14:41:53.626Z,8.70
2018-01-10T14:44:21.759Z,7.77
2018-01-10T14:46:49.895Z,8.83
2018-01-10T14:49:18.055Z,9.03
2018-01-10T14:51:47.014Z,9.33
2018-01-10T14:54:15.257Z,8.57
2018-01-10T14:56:44.412Z,9.30
2018-01-10T14:59:12.806Z,9.47
2018-01-10T15:01:41.710Z,9.63
2018-01-10T15:04:09.852Z,10.43
2018-01-10T15:06:37.993Z,14.37
2018-01-10T15:09:06.197Z,11.10
2018-01-10T15:11:34.345Z,10.87
2018-01-10T15:14:02.484Z,9.80
2018-01-10T15:16:30.600Z,10.13
2018-01-10T15:18:59.505Z,12.97
2018-01-10T15:21:27.781Z,13.40
2018-01-10T15:23:55.921Z,13.40
2018-01-10T15:26:24.065Z,15.20
2018-01-10T15:28:52.218Z,15.90
2018-01-10T15:31:20.377Z,13.77
2018-01-10T15:33:49.443Z,13.40
2018-01-10T15:36:17.578Z,14.00
2018-01-10T15:38:45.735Z,13.17
2018-01-10T15:41:13.946Z,11.40
2018-01-10T15:43:42.143Z,13.37
2018-01-10T15:46:11.011Z,14.90
2018-01-10T15:48:39.147Z,13.33
2018-01-10T15:51:07.297Z,11.77
2018-01-10T15:53:35.433Z,11.70
2018-01-10T15:56:04.332Z,13.40
2018-01-10T15:58:32.475Z,12.70
2018-01-10T16:01:00.619Z,13.10
2018-01-10T16:03:28.783Z,15.97
2018-01-10T16:05:56.920Z,14.80
2018-01-10T16:08:25.099Z,17.00
2018-01-10T16:10:53.305Z,14.90
2018-01-10T16:13:22.636Z,13.10
2018-01-10T16:15:50.769Z,14.37
2018-01-10T16:18:18.886Z,14.60
2018-01-10T16:20:47.040Z,14.47
2018-01-10T16:23:15.179Z,17.97
2018-01-10T16:25:43.305Z,17.43
2018-01-10T16:28:11.475Z,17.50
2018-01-10T16:30:39.649Z,17.87
2018-01-10T16:33:07.820Z,18.30
2018-01-10T16:35:37.162Z,20.30
2018-01-10T16:38:05.440Z,18.57
2018-01-10T16:40:33.673Z,19.83
2018-01-10T16:43:01.844Z,25.13
2018-01-10T16:45:30.735Z,24.67
2018-01-10T16:48:00.142Z,24.10
2018-01-10T16:50:28.251Z,22.30
2018-01-10T16:52:56.383Z,31.00
2018-01-10T16:55:25.291Z,27.10
2018-01-10T16:57:53.422Z,25.00
2018-01-10T17:00:21.537Z,27.53
2018-01-10T17:02:49.669Z,25.20
2018-01-10T17:05:17.793Z,28.17
2018-01-10T17:07:45.962Z,28.90
2018-01-10T17:10:14.084Z,26.47
2018-01-10T17:12:42.268Z,24.50
2018-01-10T17:15:10.421Z,24.40
2018-01-10T17:17:38.610Z,22.80
2018-01-10T17:20:06.809Z,21.37
2018-01-10T17:22:34.933Z,20.23
2018-01-10T17:25:03.070Z,21.30
2018-01-10T17:27:31.205Z,20.53
2018-01-10T17:29:59.341Z,17.60
2018-01-10T17:32:27.488Z,20.50
2018-01-10T17:34:55.633Z,19.90
2018-01-10T17:37:24.039Z,20.80
2018-01-10T17:39:52.564Z,19.50
2018-01-10T17:42:20.887Z,20.97
2018-01-10T17:44:49.356Z,20.27
2018-01-10T17:47:17.480Z,16.63
2018-01-10T17:49:45.606Z,17.20
2018-01-10T17:52:13.741Z,18.10
2018-01-10T17:54:41.899Z,20.13
2018-01-10T17:57:10.038Z,19.73
2018-01-10T17:59:38.568Z,19.47
2018-01-10T18:02:06.858Z,17.63
2018-01-10T18:04:34.988Z,19.63
2018-01-10T18:07:03.150Z,20.53
2018-01-10T18:09:31.270Z,18.43
2018-01-10T18:11:59.767Z,17.73
2018-01-10T18:14:27.888Z,18.47
2018-01-10T18:16:56.029Z,21.80
2018-01-10T18:19:24.172Z,22.10
2018-01-10T18:21:52.343Z,20.17
2018-01-10T18:24:20.485Z,22.87
2018-01-10T18:26:49.401Z,21.30
2018-01-10T18:29:17.536Z,22.40
2018-01-10T18:31:45.661Z,21.93
2018-01-10T18:34:13.802Z,22.20
2018-01-10T18:36:42.371Z,20.07
2018-01-10T18:39:10.506Z,20.07
2018-01-10T18:41:39.512Z,19.80
2018-01-10T18:44:07.633Z,22.27
2018-01-10T18:46:35.793Z,21.53
2018-01-10T18:49:03.928Z,21.17
2018-01-10T18:51:32.065Z,23.90
2018-01-10T18:54:00.189Z,24.20
2018-01-10T18:56:29.093Z,23.90
2018-01-10T18:58:57.985Z,22.40
2018-01-10T19:01:26.112Z,21.10
2018-01-10T19:03:54.233Z,21.83
2018-01-10T19:06:22.377Z,21.00
2018-01-10T19:08:51.268Z,22.30
2018-01-10T19:11:20.187Z,22.13
2018-01-10T19:13:48.696Z,22.53
2018-01-10T19:16:16.824Z,22.70
2018-01-10T19:18:44.975Z,23.27
2018-01-10T19:21:13.102Z,23.50
2018-01-10T19:23:41.246Z,20.93
2018-01-10T19:26:09.386Z,22.03
2018-01-10T19:28:38.289Z,24.30
2018-01-10T19:31:07.193Z,22.87
2018-01-10T19:33:35.333Z,25.40
2018-01-10T19:36:03.521Z,25.93
2018-01-10T19:38:32.523Z,23.97
2018-01-10T19:41:00.663Z,21.80
2018-01-10T19:43:29.332Z,21.63
2018-01-10T19:45:57.550Z,21.73
2018-01-10T19:48:31.641Z,22.00
2018-01-10T19:51:03.617Z,21.50
2018-01-10T19:53:32.062Z,22.50
2018-01-10T19:56:00.213Z,20.33
2018-01-10T19:58:30.978Z,20.47
2018-01-10T20:00:59.120Z,20.10
2018-01-10T20:03:28.411Z,21.13
2018-01-10T20:05:56.646Z,20.10
2018-01-10T20:08:25.625Z,21.63
2018-01-10T20:10:54.047Z,20.30
2018-01-10T20:13:22.326Z,22.20
2018-01-10T20:15:50.462Z,30.33
2018-01-10T20:18:18.612Z,20.90
2018-01-10T20:20:46.857Z,22.47
2018-01-10T20:23:15.748Z,21.67
2018-01-10T20:25:43.884Z,19.70
2018-01-10T20:28:12.020Z,20.02
2018-01-10T20:30:40.196Z,20.97
2018-01-10T20:33:08.324Z,18.80
2018-01-10T20:35:36.471Z,19.90
2018-01-10T20:38:04.591Z,19.77
2018-01-10T20:40:33.478Z,21.30
2018-01-10T20:43:01.613Z,20.90
2018-01-10T20:45:29.733Z,20.70
2018-01-10T20:47:57.922Z,20.70
2018-01-10T20:50:25.984Z,20.90
2018-01-10T20:52:54.121Z,21.33
2018-01-10T20:55:22.298Z,19.57
2018-01-10T20:57:50.421Z,19.90
2018-01-10T21:00:18.557Z,18.83
2018-01-10T21:02:46.688Z,18.37
2018-01-10T21:05:14.824Z,18.40
2018-01-10T21:07:42.996Z,19.00
2018-01-10T21:10:11.102Z,17.50
2018-01-10T21:12:39.244Z,16.20
2018-01-10T21:15:08.137Z,16.87
2018-01-10T21:17:36.290Z,17.57
2018-01-10T21:20:04.455Z,19.50
2018-01-10T21:22:32.741Z,23.03
2018-01-10T21:25:00.912Z,21.67
2018-01-10T21:27:29.059Z,17.17
2018-01-10T21:29:57.234Z,17.25
2018-01-10T21:32:25.443Z,16.90
2018-01-10T21:34:53.673Z,16.33
2018-01-10T21:37:21.790Z,16.50
2018-01-10T21:39:49.965Z,17.90
2018-01-10T21:42:18.126Z,17.80
2018-01-10T21:44:46.248Z,18.13
2018-01-10T21:47:14.381Z,17.35
2018-01-10T21:49:42.536Z,17.62
2018-01-10T21:52:11.738Z,17.75
2018-01-10T21:54:40.005Z,19.37
2018-01-10T21:57:08.898Z,18.37
2018-01-10T21:59:37.055Z,19.27
2018-01-10T22:02:05.185Z,19.05
2018-01-10T22:04:33.371Z,17.77
2018-01-10T22:07:01.502Z,17.25
2018-01-10T22:09:29.701Z,16.07
2018-01-10T22:11:57.817Z,16.10
2018-01-10T22:14:25.953Z,15.80
2018-01-10T22:16:54.097Z,16.90
2018-01-10T22:19:22.238Z,18.00
2018-01-10T22:21:51.141Z,16.70
2018-01-10T22:24:20.041Z,17.60
2018-01-10T22:26:48.191Z,15.10
2018-01-10T22:29:17.088Z,17.83
2018-01-10T22:31:45.355Z,18.00
2018-01-10T22:34:14.246Z,19.90
2018-01-10T22:36:43.164Z,16.98
2018-01-10T22:39:11.306Z,14.53
2018-01-10T22:41:39.432Z,15.30
2018-01-10T22:44:07.590Z,16.53
2018-01-10T22:46:36.488Z,16.37
2018-01-10T22:49:04.622Z,14.50
2018-01-10T22:51:33.549Z,16.53
2018-01-10T22:54:01.671Z,15.50
2018-01-10T22:56:30.596Z,15.53
2018-01-10T22:58:58.737Z,13.80
2018-01-10T23:01:27.672Z,15.20
2018-01-10T23:03:55.872Z,14.60
2018-01-10T23:06:24.024Z,20.20
2018-01-10T23:08:52.149Z,19.98
2018-01-10T23:11:21.054Z,16.60
2018-01-10T23:13:49.189Z,16.85
2018-01-10T23:16:18.105Z,18.83
2018-01-10T23:18:46.249Z,19.33
2018-01-10T23:21:14.821Z,21.25
2018-01-10T23:23:42.952Z,17.70
2018-01-10T23:26:11.106Z,18.77
2018-01-10T23:28:39.257Z,19.85
2018-01-10T23:31:07.416Z,18.02
2018-01-10T23:33:35.548Z,20.42
2018-01-10T23:36:04.799Z,21.12
2018-01-10T23:38:32.934Z,19.40
2018-01-10T23:41:00.619Z,18.42
2018-01-10T23:43:30.353Z,18.85
2018-01-10T23:45:59.237Z,20.60
2018-01-10T23:48:27.377Z,23.52
2018-01-10T23:50:55.541Z,19.85
2018-01-10T23:53:24.521Z,18.58
2018-01-10T23:55:52.657Z,17.58
2018-01-10T23:58:20.790Z,18.37
